createdAt,value
2019-04-16T00:00:51.938Z,1018.81
2019-04-16T00:01:51.805Z,1018.77
2019-04-16T00:02:52.225Z,1018.77
2019-04-16T00:03:53.778Z,1018.78
2019-04-16T00:04:53.697Z,1018.75
2019-04-16T00:05:51.380Z,1018.70
2019-04-16T00:06:51.274Z,1018.78
2019-04-16T00:07:51.171Z,1018.72
2019-04-16T00:08:51.063Z,1018.71
2019-04-16T00:09:50.958Z,1018.73
2019-04-16T00:10:50.862Z,1018.70
2019-04-16T00:11:50.745Z,1018.70
2019-04-16T00:12:50.640Z,1018.65
2019-04-16T00:13:50.539Z,1018.68
2019-04-16T00:14:50.425Z,1018.66
2019-04-16T00:15:50.319Z,1018.65
2019-04-16T00:16:50.216Z,1018.64
2019-04-16T00:17:50.110Z,1018.59
2019-04-16T00:18:57.248Z,1018.63
2019-04-16T00:19:49.969Z,1018.63
2019-04-16T00:20:49.790Z,1018.63
2019-04-16T00:21:49.690Z,1018.56
2019-04-16T00:22:49.577Z,1018.60
2019-04-16T00:23:49.473Z,1018.55
2019-04-16T00:24:49.371Z,1018.54
2019-04-16T00:25:49.259Z,1018.55
2019-04-16T00:26:49.154Z,1018.51
2019-04-16T00:27:49.048Z,1018.48
2019-04-16T00:28:48.942Z,1018.45
2019-04-16T00:29:48.836Z,1018.45
2019-04-16T00:30:48.729Z,1018.40
2019-04-16T00:31:48.624Z,1018.42
2019-04-16T00:32:48.517Z,1018.40
2019-04-16T00:33:48.411Z,1018.42
2019-04-16T00:34:48.305Z,1018.40
2019-04-16T00:35:48.201Z,1018.38
2019-04-16T00:36:48.801Z,1018.40
2019-04-16T00:37:51.355Z,1018.44
2019-04-16T00:38:47.948Z,1018.39
2019-04-16T00:39:47.775Z,1018.44
2019-04-16T00:40:47.670Z,1018.40
2019-04-16T00:41:47.563Z,1018.38
2019-04-16T00:42:47.454Z,1018.37
2019-04-16T00:43:47.350Z,1018.43
2019-04-16T00:44:47.249Z,1018.38
2019-04-16T00:45:47.138Z,1018.35
2019-04-16T00:46:47.034Z,1018.31
2019-04-16T00:47:48.008Z,1018.32
2019-04-16T00:48:46.821Z,1018.25
2019-04-16T00:49:46.714Z,1018.25
2019-04-16T00:50:46.606Z,1018.24
2019-04-16T00:51:46.505Z,1018.25
2019-04-16T03:13:31.358Z,1018.11
2019-04-16T03:14:31.253Z,1018.14
2019-04-16T03:15:33.709Z,1018.12
2019-04-16T03:16:31.035Z,1018.10
2019-04-16T03:17:30.928Z,1018.09
2019-04-16T03:18:30.820Z,1018.05
2019-04-16T03:19:30.713Z,1018.10
2019-04-16T03:20:30.605Z,1018.12
2019-04-16T03:21:30.500Z,1018.11
2019-04-16T03:22:30.552Z,1018.11
2019-04-16T03:23:30.286Z,1018.11
2019-04-16T03:24:30.181Z,1018.08
2019-04-16T03:25:30.071Z,1018.05
2019-04-16T03:26:29.964Z,1018.05
2019-04-16T03:27:29.857Z,1018.04
2019-04-16T03:28:29.760Z,1018.04
2019-04-16T03:29:30.435Z,1018.06
2019-04-16T03:30:29.547Z,1018.09
2019-04-16T03:31:29.430Z,1018.07
2019-04-16T03:32:33.193Z,1018.08
2019-04-16T03:33:29.218Z,1018.04
2019-04-16T03:34:29.110Z,1018.10
2019-04-16T03:35:29.000Z,1018.07
2019-04-16T03:36:29.532Z,1018.03
2019-04-16T03:37:30.283Z,1018.10
2019-04-16T03:38:28.679Z,1018.07
2019-04-16T03:39:28.572Z,1018.08
2019-04-16T03:40:28.465Z,1018.07
2019-04-16T03:41:28.359Z,1018.10
2019-04-16T03:42:28.259Z,1018.07
2019-04-16T03:43:29.509Z,1018.09
2019-04-16T03:44:28.042Z,1018.08
2019-04-16T03:45:27.927Z,1018.04
2019-04-16T03:46:27.822Z,1018.08
2019-04-16T03:47:27.714Z,1018.06
2019-04-16T03:48:27.650Z,1018.10
2019-04-16T03:49:28.388Z,1018.11
2019-04-16T03:50:31.041Z,1018.14
2019-04-16T03:51:27.285Z,1018.11
2019-04-16T03:52:27.179Z,1018.16
2019-04-16T03:53:27.073Z,1018.13
2019-04-16T03:54:26.964Z,1018.21
2019-04-16T03:55:26.857Z,1018.13
2019-04-16T03:56:27.538Z,1018.15
2019-04-16T03:57:26.640Z,1018.15
2019-04-16T03:58:26.535Z,1018.15
2019-04-16T03:59:26.425Z,1018.21
2019-04-16T04:00:26.319Z,1018.17
2019-04-16T04:01:26.211Z,1018.19
2019-04-16T04:02:26.106Z,1018.12
2019-04-16T04:03:26.773Z,1018.08
2019-04-16T04:04:28.902Z,1018.10
2019-04-16T04:05:25.782Z,1018.09
2019-04-16T04:06:25.704Z,1018.11
2019-04-16T04:07:25.628Z,1018.08
2019-04-16T04:08:25.462Z,1018.09
2019-04-16T04:09:25.355Z,1018.08
2019-04-16T04:10:30.798Z,1018.09
2019-04-16T04:11:25.140Z,1018.09
2019-04-16T04:12:27.668Z,1018.10
2019-04-16T04:13:24.929Z,1018.15
2019-04-16T04:14:24.818Z,1018.11
2019-04-16T04:15:26.325Z,1018.10
2019-04-16T09:40:51.410Z,1018.50
2019-04-16T09:41:51.301Z,1018.49
2019-04-16T09:42:51.235Z,1018.30
2019-04-16T09:43:53.819Z,1018.35
2019-04-16T09:44:51.004Z,1018.42
2019-04-16T09:45:50.907Z,1018.48
2019-04-16T09:46:52.036Z,1018.50
2019-04-16T09:47:50.706Z,1018.54
2019-04-16T09:48:50.611Z,1018.43
2019-04-16T09:49:50.514Z,1018.64
2019-04-16T09:50:50.417Z,1018.51
2019-04-16T09:51:51.083Z,1018.54
2019-04-16T09:52:52.472Z,1018.51
2019-04-16T09:53:50.127Z,1018.51
2019-04-16T09:54:50.035Z,1018.50
2019-04-16T09:55:50.584Z,1018.58
2019-04-16T09:56:49.842Z,1018.47
2019-04-16T09:57:49.750Z,1018.51
2019-04-16T09:58:49.656Z,1018.54
2019-04-16T09:59:49.561Z,1018.59
2019-04-16T10:00:49.469Z,1018.51
2019-04-16T10:01:49.448Z,1018.54
2019-04-16T10:02:49.283Z,1018.58
2019-04-16T10:03:49.244Z,1018.66
2019-04-16T10:04:49.119Z,1018.56
2019-04-16T10:05:49.003Z,1018.56
2019-04-16T10:06:48.910Z,1018.65
2019-04-16T10:07:48.854Z,1018.60
2019-04-16T10:08:48.724Z,1018.47
2019-04-16T10:09:51.456Z,1018.42
2019-04-16T10:10:48.574Z,1018.50
2019-04-16T10:11:48.446Z,1018.46
2019-04-16T10:12:48.354Z,1018.53
2019-04-16T10:13:48.267Z,1018.46
2019-04-16T10:14:48.164Z,1018.47
2019-04-16T10:15:48.094Z,1018.44
2019-04-16T10:16:47.996Z,1018.44
2019-04-16T10:17:47.898Z,1018.44
2019-04-16T10:18:47.821Z,1018.33
2019-04-16T10:19:47.700Z,1018.35
2019-04-16T10:20:47.613Z,1018.36
2019-04-16T10:21:53.381Z,1018.35
2019-04-16T10:22:47.522Z,1018.34
2019-04-16T10:23:47.339Z,1018.32
2019-04-16T10:24:47.236Z,1018.40
2019-04-16T10:25:47.175Z,1018.40
2019-04-16T10:26:47.039Z,1018.44
2019-04-16T10:27:46.946Z,1018.31
2019-04-16T10:28:46.852Z,1018.27
2019-04-16T10:29:46.764Z,1018.18
2019-04-16T10:30:46.664Z,1018.19
2019-04-16T10:31:46.656Z,1018.23
2019-04-16T10:32:46.489Z,1018.17
2019-04-16T10:33:46.370Z,1018.17
2019-04-16T10:34:46.278Z,1018.18
2019-04-16T10:35:46.198Z,1018.14
2019-04-16T10:36:46.106Z,1018.16
2019-04-16T10:37:45.990Z,1018.08
2019-04-16T10:38:45.894Z,1018.06
2019-04-16T10:39:45.824Z,1018.15
2019-04-16T10:40:45.700Z,1018.07
2019-04-16T10:41:45.603Z,1018.02
2019-04-16T10:42:45.506Z,1018.07
2019-04-16T10:43:45.466Z,1018.06
2019-04-16T10:44:45.313Z,1017.93
2019-04-16T10:45:45.282Z,1018.10
2019-04-16T10:46:45.199Z,1018.10
2019-04-16T10:47:45.047Z,1018.11
2019-04-16T10:48:44.979Z,1018.13
2019-04-16T10:49:44.825Z,1018.09
2019-04-16T10:50:44.740Z,1018.10
2019-04-16T10:51:44.629Z,1018.07
2019-04-16T10:52:44.538Z,1018.03
2019-04-16T10:53:44.477Z,1017.96
2019-04-16T10:54:44.430Z,1017.97
2019-04-16T10:55:44.234Z,1017.93
2019-04-16T10:56:44.143Z,1017.89
2019-04-16T10:57:44.101Z,1017.98
2019-04-16T10:58:43.961Z,1017.97
2019-04-16T10:59:43.868Z,1017.90
2019-04-16T11:00:43.745Z,1017.97
2019-04-16T11:01:43.644Z,1017.98
2019-04-16T11:02:43.546Z,1018.00
2019-04-16T11:03:43.445Z,1017.82
2019-04-16T11:04:43.931Z,1017.90
2019-04-16T11:05:43.275Z,1017.86
2019-04-16T11:06:43.216Z,1017.91
2019-04-16T11:07:43.113Z,1017.86
2019-04-16T11:08:42.953Z,1017.77
2019-04-16T11:09:42.875Z,1017.90
2019-04-16T11:10:42.785Z,1017.86
2019-04-16T11:11:42.650Z,1017.80
2019-04-16T11:12:42.666Z,1017.80
2019-04-16T11:13:42.481Z,1017.94
2019-04-16T11:14:42.351Z,1017.81
2019-04-16T11:15:42.272Z,1017.84
2019-04-16T11:16:42.165Z,1017.84
2019-04-16T11:17:42.059Z,1017.90
2019-04-16T11:18:41.968Z,1017.83
2019-04-16T11:19:41.855Z,1017.81
2019-04-16T11:20:41.754Z,1017.79
2019-04-16T11:21:41.653Z,1017.88
2019-04-16T11:22:41.553Z,1017.83
2019-04-16T11:23:41.455Z,1017.99
2019-04-16T11:24:41.354Z,1017.92
2019-04-16T11:25:41.255Z,1017.88
2019-04-16T11:26:44.263Z,1017.92
2019-04-16T11:27:41.140Z,1017.93
2019-04-16T11:28:40.977Z,1017.88
2019-04-16T11:29:42.029Z,1017.87
2019-04-16T11:30:40.759Z,1017.78
2019-04-16T11:31:40.680Z,1017.77
2019-04-16T11:32:40.562Z,1017.80
2019-04-16T11:33:40.490Z,1017.77
2019-04-16T11:34:40.359Z,1017.75
2019-04-16T11:35:40.301Z,1017.86
2019-04-16T11:36:40.193Z,1017.71
2019-04-16T11:37:43.577Z,1017.77
2019-04-16T11:38:39.964Z,1017.81
2019-04-16T11:39:39.862Z,1017.85
2019-04-16T11:40:41.165Z,1017.80
2019-04-16T11:41:39.661Z,1017.82
2019-04-16T11:42:39.560Z,1017.85
2019-04-16T11:43:39.461Z,1017.79
2019-04-16T11:44:39.385Z,1017.68
2019-04-16T11:45:39.309Z,1017.70
2019-04-16T11:46:39.186Z,1017.66
2019-04-16T11:47:39.152Z,1017.71
2019-04-16T11:48:39.014Z,1017.76
2019-04-16T11:49:38.911Z,1017.80
2019-04-16T11:50:38.781Z,1017.78
2019-04-16T11:51:38.673Z,1017.78
2019-04-16T11:52:40.068Z,1017.77
2019-04-16T11:53:38.478Z,1017.75
2019-04-16T11:54:38.366Z,1017.76
2019-04-16T11:55:38.292Z,1017.68
2019-04-16T11:56:38.208Z,1017.76
2019-04-16T11:57:38.086Z,1017.76
2019-04-16T11:58:37.968Z,1017.88
2019-04-16T11:59:38.323Z,1017.85
2019-04-16T12:00:37.797Z,1017.82
2019-04-16T12:01:37.713Z,1017.75
2019-04-16T12:02:38.794Z,1017.78
2019-04-16T12:03:37.491Z,1017.78
2019-04-16T12:04:37.394Z,1017.75
2019-04-16T12:05:37.302Z,1017.69
2019-04-16T12:06:37.209Z,1017.77
2019-04-16T12:07:37.134Z,1017.72
2019-04-16T12:08:37.064Z,1017.69
2019-04-16T12:09:36.883Z,1017.79
2019-04-16T12:10:36.810Z,1017.69
2019-04-16T12:11:36.695Z,1017.69
2019-04-16T12:12:36.579Z,1017.68
2019-04-16T12:13:36.516Z,1017.70
2019-04-16T12:14:42.057Z,1017.63
2019-04-16T12:15:36.320Z,1017.71
2019-04-16T12:16:36.204Z,1017.71
2019-04-16T12:17:36.476Z,1017.72
2019-04-16T12:18:35.979Z,1017.66
2019-04-16T12:19:35.882Z,1017.64
2019-04-16T12:20:35.780Z,1017.56
2019-04-16T12:21:35.680Z,1017.52
2019-04-16T12:22:35.581Z,1017.54
2019-04-16T12:23:35.600Z,1017.65
2019-04-16T12:24:35.386Z,1017.57
2019-04-16T12:25:35.317Z,1017.59
2019-04-16T12:26:35.224Z,1017.65
2019-04-16T12:27:35.111Z,1017.58
2019-04-16T12:28:35.008Z,1017.59
2019-04-16T12:29:34.889Z,1017.56
2019-04-16T12:30:34.827Z,1017.58
2019-04-16T12:31:34.686Z,1017.56
2019-04-16T12:32:34.627Z,1017.55
2019-04-16T12:33:34.535Z,1017.56
2019-04-16T12:34:34.430Z,1017.54
2019-04-16T12:35:34.831Z,1017.53
2019-04-16T12:36:34.211Z,1017.58
2019-04-16T12:37:37.415Z,1017.53
2019-04-16T12:38:34.061Z,1017.57
2019-04-16T12:39:35.826Z,1017.60
2019-04-16T12:40:33.799Z,1017.55
2019-04-16T12:41:33.740Z,1017.61
2019-04-16T12:42:33.599Z,1017.63
2019-04-16T12:43:33.493Z,1017.52
2019-04-16T12:44:44.537Z,1017.51
2019-04-16T12:45:33.333Z,1017.49
2019-04-16T12:46:33.327Z,1017.57
2019-04-16T12:47:33.097Z,1017.47
2019-04-16T12:48:33.066Z,1017.42
2019-04-16T12:49:32.958Z,1017.39
2019-04-16T12:50:32.794Z,1017.39
2019-04-16T12:51:32.697Z,1017.36
2019-04-16T12:52:32.603Z,1017.46
2019-04-16T12:53:34.496Z,1017.48
2019-04-16T12:54:32.398Z,1017.48
2019-04-16T12:55:32.675Z,1017.44
2019-04-16T12:56:32.197Z,1017.45
2019-04-16T12:57:32.097Z,1017.43
2019-04-16T12:58:31.999Z,1017.41
2019-04-16T12:59:31.900Z,1017.35
2019-04-16T13:00:31.845Z,1017.35
2019-04-16T13:01:33.332Z,1017.42
2019-04-16T13:02:31.598Z,1017.35
2019-04-16T13:03:31.500Z,1017.37
2019-04-16T13:04:31.401Z,1017.27
2019-04-16T13:05:31.306Z,1017.32
2019-04-16T13:06:31.200Z,1017.30
2019-04-16T13:07:31.102Z,1017.35
2019-04-16T13:08:31.041Z,1017.30
2019-04-16T13:09:30.943Z,1017.34
2019-04-16T13:10:30.811Z,1017.38
2019-04-16T13:11:31.905Z,1017.32
2019-04-16T13:12:32.701Z,1017.26
2019-04-16T13:13:30.508Z,1017.34
2019-04-16T13:14:30.405Z,1017.38
2019-04-16T13:15:30.307Z,1017.27
2019-04-16T13:16:30.209Z,1017.35
2019-04-16T13:17:30.108Z,1017.31
2019-04-16T13:18:30.010Z,1017.30
2019-04-16T13:19:29.910Z,1017.34
2019-04-16T13:20:30.219Z,1017.25
2019-04-16T13:21:29.711Z,1017.19
2019-04-16T13:22:29.613Z,1017.16
2019-04-16T13:23:29.512Z,1017.25
2019-04-16T13:24:29.416Z,1017.13
2019-04-16T13:25:29.311Z,1017.19
2019-04-16T13:26:29.215Z,1017.18
2019-04-16T13:27:29.120Z,1017.18
2019-04-16T13:28:29.019Z,1017.18
2019-04-16T13:29:29.510Z,1017.14
2019-04-16T13:30:28.819Z,1017.13
2019-04-16T13:31:28.716Z,1017.11
2019-04-16T13:32:28.621Z,1017.03
2019-04-16T13:33:28.518Z,1017.12
2019-04-16T13:34:28.420Z,1017.23
2019-04-16T13:35:28.320Z,1017.12
2019-04-16T13:36:28.220Z,1017.19
2019-04-16T13:37:30.485Z,1017.10
2019-04-16T13:38:28.021Z,1017.05
2019-04-16T13:39:27.923Z,1017.05
2019-04-16T13:40:27.823Z,1017.05
2019-04-16T13:41:27.725Z,1017.07
2019-04-16T13:42:27.631Z,1017.03
2019-04-16T13:43:27.528Z,1017.01
2019-04-16T13:44:27.427Z,1017.10
2019-04-16T13:45:27.545Z,1017.04
2019-04-16T13:46:29.473Z,1017.08
2019-04-16T13:47:27.126Z,1017.03
2019-04-16T13:48:27.497Z,1017.02
2019-04-16T13:49:31.416Z,1017.02
2019-04-16T13:50:26.902Z,1017.16
2019-04-16T13:51:26.732Z,1017.03
2019-04-16T13:52:26.634Z,1016.97
2019-04-16T13:53:29.051Z,1016.96
2019-04-16T13:54:28.083Z,1016.97
2019-04-16T13:55:26.333Z,1017.01
2019-04-16T13:56:26.236Z,1017.01
2019-04-16T13:57:26.137Z,1016.94
2019-04-16T13:58:26.035Z,1017.04
2019-04-16T13:59:30.205Z,1016.97
2019-04-16T14:00:25.841Z,1017.07
2019-04-16T14:01:25.740Z,1017.08
2019-04-16T14:02:25.640Z,1017.05
2019-04-16T14:03:25.543Z,1017.02
2019-04-16T14:04:30.318Z,1017.10
2019-04-16T14:05:25.349Z,1017.10
2019-04-16T14:06:25.244Z,1017.16
2019-04-16T14:07:25.575Z,1017.15
2019-04-16T14:08:25.047Z,1017.11
2019-04-16T14:09:24.951Z,1017.08
2019-04-16T14:10:24.881Z,1017.11
2019-04-16T14:11:24.749Z,1017.10
2019-04-16T14:12:40.822Z,1016.99
2019-04-16T14:13:24.548Z,1016.96
2019-04-16T14:14:24.450Z,1017.02
2019-04-16T14:15:31.715Z,1017.01
2019-04-16T14:16:24.252Z,1017.02
2019-04-16T14:17:24.153Z,1017.03
2019-04-16T14:18:24.055Z,1017.04
2019-04-16T14:19:23.955Z,1017.07
2019-04-16T14:20:23.859Z,1017.11
2019-04-16T14:21:23.757Z,1017.08
2019-04-16T14:22:23.660Z,1017.05
2019-04-16T14:23:23.559Z,1017.12
2019-04-16T14:24:23.460Z,1017.14
2019-04-16T14:25:23.362Z,1017.15
2019-04-16T14:26:23.268Z,1017.08
2019-04-16T14:27:23.165Z,1017.11
2019-04-16T14:28:23.066Z,1017.15
2019-04-16T14:29:24.879Z,1017.11
2019-04-16T14:30:22.916Z,1017.14
2019-04-16T14:31:22.785Z,1017.12
2019-04-16T14:32:22.670Z,1017.11
2019-04-16T14:33:22.578Z,1017.14
2019-04-16T14:34:22.471Z,1017.04
2019-04-16T14:35:32.883Z,1017.10
2019-04-16T14:36:22.272Z,1017.06
2019-04-16T14:37:22.173Z,1017.02
2019-04-16T14:38:22.074Z,1017.09
2019-04-16T14:39:21.973Z,1017.20
2019-04-16T14:40:21.877Z,1017.12
2019-04-16T14:41:21.775Z,1017.09
2019-04-16T14:42:22.257Z,1017.11
2019-04-16T14:43:21.579Z,1017.14
2019-04-16T14:44:21.480Z,1017.18
2019-04-16T14:45:21.380Z,1017.11
2019-04-16T14:46:21.281Z,1017.15
2019-04-16T14:47:21.184Z,1017.21
2019-04-16T14:48:21.082Z,1017.20
2019-04-16T14:49:20.993Z,1017.12
2019-04-16T14:50:23.429Z,1017.11
2019-04-16T14:51:20.827Z,1017.07
2019-04-16T14:52:20.687Z,1017.17
2019-04-16T14:53:20.588Z,1017.14
2019-04-16T14:54:20.487Z,1017.10
2019-04-16T14:55:20.391Z,1017.16
2019-04-16T14:56:20.298Z,1017.09
2019-04-16T14:57:20.192Z,1017.13
2019-04-16T14:58:20.090Z,1017.17
2019-04-16T14:59:30.368Z,1017.14
2019-04-16T15:00:19.896Z,1017.04
2019-04-16T15:01:19.796Z,1017.14
2019-04-16T15:02:19.696Z,1017.16
2019-04-16T15:03:19.601Z,1017.12
2019-04-16T15:04:19.501Z,1017.21
2019-04-16T15:05:19.398Z,1017.06
2019-04-16T15:06:19.694Z,1017.09
2019-04-16T15:07:19.199Z,1017.08
2019-04-16T15:08:19.103Z,1017.16
2019-04-16T15:09:19.005Z,1017.16
2019-04-16T15:10:18.902Z,1017.14
2019-04-16T15:11:18.870Z,1017.16
2019-04-16T15:12:18.707Z,1017.07
2019-04-16T15:13:18.606Z,1017.14
2019-04-16T15:14:18.508Z,1017.12
2019-04-16T15:15:18.405Z,1017.10
2019-04-16T15:16:22.209Z,1017.09
2019-04-16T15:17:18.209Z,1017.11
2019-04-16T15:18:18.112Z,1016.89
2019-04-16T15:19:18.011Z,1017.09
2019-04-16T15:20:17.910Z,1017.11
2019-04-16T15:21:17.813Z,1017.22
2019-04-16T15:22:17.711Z,1017.20
2019-04-16T15:23:17.614Z,1017.23
2019-04-16T15:24:17.516Z,1017.16
2019-04-16T15:25:17.415Z,1017.16
2019-04-16T15:26:17.317Z,1017.16
2019-04-16T15:27:17.219Z,1017.11
2019-04-16T15:28:17.117Z,1017.08
2019-04-16T15:29:17.017Z,1017.12
2019-04-16T15:30:16.919Z,1017.07
2019-04-16T15:31:16.843Z,1017.06
2019-04-16T15:32:16.774Z,1017.08
2019-04-16T15:33:16.622Z,1017.07
2019-04-16T15:34:16.520Z,1017.05
2019-04-16T15:35:16.429Z,1017.09
2019-04-16T15:36:19.417Z,1017.05
2019-04-16T15:37:16.223Z,1017.06
2019-04-16T15:38:16.125Z,1017.02
2019-04-16T15:39:16.026Z,1017.09
2019-04-16T15:40:15.929Z,1017.06
2019-04-16T15:41:17.423Z,1017.01
2019-04-16T15:42:17.225Z,1017.11
2019-04-16T15:43:19.100Z,1017.19
2019-04-16T15:44:15.534Z,1017.10
2019-04-16T15:45:15.432Z,1017.13
2019-04-16T15:46:26.197Z,1017.12
2019-04-16T15:47:15.234Z,1017.18
2019-04-16T15:48:17.683Z,1017.16
2019-04-16T15:49:15.035Z,1017.16
2019-04-16T15:50:14.935Z,1017.12
2019-04-16T15:51:15.456Z,1017.21
2019-04-16T15:52:14.814Z,1017.10
2019-04-16T15:53:14.635Z,1017.12
2019-04-16T15:54:14.540Z,1017.13
2019-04-16T15:55:14.439Z,1017.15
2019-04-16T15:56:14.341Z,1017.24
2019-04-16T15:57:14.242Z,1017.18
2019-04-16T15:58:14.140Z,1017.22
2019-04-16T15:59:14.042Z,1017.21
2019-04-16T16:00:13.945Z,1017.22
2019-04-16T16:01:13.841Z,1017.19
2019-04-16T16:02:13.746Z,1017.25
2019-04-16T16:03:13.650Z,1017.22
2019-04-16T16:04:13.547Z,1017.20
2019-04-16T16:05:13.447Z,1017.21
2019-04-16T16:06:13.389Z,1017.20
2019-04-16T16:07:13.251Z,1017.21
2019-04-16T16:08:13.151Z,1017.20
2019-04-16T16:09:13.117Z,1017.23
2019-04-16T16:10:13.710Z,1017.25
2019-04-16T16:11:16.029Z,1017.16
2019-04-16T16:12:12.785Z,1017.20
2019-04-16T16:13:12.727Z,1017.27
2019-04-16T16:14:12.556Z,1017.26
2019-04-16T16:15:12.455Z,1017.27
2019-04-16T16:16:17.331Z,1017.31
2019-04-16T16:17:12.255Z,1017.36
2019-04-16T16:18:12.158Z,1017.34
2019-04-16T16:19:12.227Z,1017.32
2019-04-16T16:20:11.959Z,1017.34
2019-04-16T16:21:11.868Z,1017.33
2019-04-16T16:22:12.179Z,1017.39
2019-04-16T16:23:11.662Z,1017.35
2019-04-16T16:24:11.561Z,1017.33
2019-04-16T16:25:11.464Z,1017.42
2019-04-16T16:26:11.362Z,1017.39
2019-04-16T16:27:11.265Z,1017.40
2019-04-16T16:28:11.165Z,1017.35
2019-04-16T16:29:11.066Z,1017.30
2019-04-16T16:30:14.407Z,1017.38
2019-04-16T16:31:10.865Z,1017.34
2019-04-16T16:32:10.783Z,1017.36
2019-04-16T16:33:10.694Z,1017.37
2019-04-16T16:34:10.573Z,1017.38
2019-04-16T16:35:10.472Z,1017.39
2019-04-16T16:36:10.375Z,1017.38
2019-04-16T16:37:10.269Z,1017.42
2019-04-16T16:38:11.116Z,1017.42
2019-04-16T16:39:10.188Z,1017.39
2019-04-16T16:40:12.024Z,1017.40
2019-04-16T16:41:09.874Z,1017.46
2019-04-16T16:42:09.774Z,1017.38
2019-04-16T16:43:09.678Z,1017.45
2019-04-16T16:44:09.660Z,1017.43
2019-04-16T16:45:09.475Z,1017.43
2019-04-16T16:46:09.378Z,1017.43
2019-04-16T16:47:09.277Z,1017.48
2019-04-16T16:48:09.178Z,1017.40
2019-04-16T16:49:09.080Z,1017.42
2019-04-16T16:50:10.439Z,1017.44
2019-04-16T16:51:08.886Z,1017.50
2019-04-16T16:52:08.781Z,1017.49
2019-04-16T16:53:08.751Z,1017.43
2019-04-16T16:54:08.584Z,1017.49
2019-04-16T16:55:08.482Z,1017.49
2019-04-16T16:56:08.381Z,1017.44
2019-04-16T16:57:08.825Z,1017.51
2019-04-16T16:58:08.403Z,1017.59
2019-04-16T16:59:08.084Z,1017.53
2019-04-16T17:00:07.987Z,1017.57
2019-04-16T17:01:07.883Z,1017.59
2019-04-16T17:02:10.246Z,1017.53
2019-04-16T17:03:10.038Z,1017.57
2019-04-16T17:04:07.593Z,1017.62
2019-04-16T17:05:07.489Z,1017.64
2019-04-16T17:06:07.385Z,1017.68
2019-04-16T17:07:07.288Z,1017.62
2019-04-16T17:08:07.187Z,1017.60
2019-04-16T17:09:07.087Z,1017.63
2019-04-16T17:10:06.991Z,1017.63
2019-04-16T17:11:16.145Z,1017.66
2019-04-16T17:12:06.789Z,1017.61
2019-04-16T17:13:06.712Z,1017.68
2019-04-16T17:14:06.646Z,1017.68
2019-04-16T17:15:08.747Z,1017.67
2019-04-16T17:16:06.391Z,1017.60
2019-04-16T17:17:13.800Z,1017.70
2019-04-16T17:18:06.190Z,1017.71
2019-04-16T17:19:06.091Z,1017.72
2019-04-16T17:20:05.992Z,1017.65
2019-04-16T17:21:05.890Z,1017.68
2019-04-16T17:22:05.797Z,1017.69
2019-04-16T17:23:05.692Z,1017.73
2019-04-16T17:24:05.590Z,1017.71
2019-04-16T17:25:10.416Z,1017.73
2019-04-16T17:26:05.390Z,1017.74
2019-04-16T17:27:05.290Z,1017.73
2019-04-16T17:28:05.191Z,1017.68
2019-04-16T17:29:05.092Z,1017.66
2019-04-16T17:30:04.993Z,1017.71
2019-04-16T17:31:04.890Z,1017.70
2019-04-16T17:32:05.034Z,1017.69
2019-04-16T17:33:04.696Z,1017.75
2019-04-16T17:34:04.629Z,1017.75
2019-04-16T17:35:06.996Z,1017.78
2019-04-16T17:36:04.396Z,1017.80
2019-04-16T17:37:04.292Z,1017.84
2019-04-16T17:38:04.258Z,1017.84
2019-04-16T17:39:09.568Z,1017.78
2019-04-16T17:40:03.997Z,1017.82
2019-04-16T17:41:03.891Z,1017.79
2019-04-16T17:42:05.014Z,1017.85
2019-04-16T17:43:03.827Z,1017.87
2019-04-16T17:44:04.087Z,1017.89
2019-04-16T17:45:03.492Z,1017.83
2019-04-16T17:46:03.392Z,1017.89
2019-04-16T17:47:03.291Z,1017.93
2019-04-16T17:48:03.195Z,1017.85
2019-04-16T17:49:03.092Z,1017.91
2019-04-16T17:50:04.252Z,1017.98
2019-04-16T17:51:03.161Z,1017.96
2019-04-16T17:52:02.985Z,1017.94
2019-04-16T17:53:02.880Z,1018.01
2019-04-16T17:54:02.671Z,1018.02
2019-04-16T17:55:02.491Z,1018.05
2019-04-16T17:56:02.392Z,1018.06
2019-04-16T17:57:02.293Z,1018.08
2019-04-16T17:58:02.191Z,1018.05
2019-04-16T17:59:02.093Z,1018.09
2019-04-16T18:00:04.513Z,1018.12
2019-04-16T18:01:01.890Z,1018.09
2019-04-16T18:02:01.790Z,1018.09
2019-04-16T18:03:04.094Z,1018.13
2019-04-16T18:04:01.591Z,1018.12
2019-04-16T18:05:01.492Z,1018.16
2019-04-16T18:06:01.387Z,1018.19
2019-04-16T18:07:01.288Z,1018.19
2019-04-16T18:08:01.187Z,1018.16
2019-04-16T18:09:01.085Z,1018.22
2019-04-16T18:10:02.005Z,1018.22
2019-04-16T18:11:00.886Z,1018.22
2019-04-16T18:12:00.786Z,1018.22
2019-04-16T18:13:00.684Z,1018.21
2019-04-16T18:14:04.258Z,1018.24
2019-04-16T18:15:00.533Z,1018.25
2019-04-16T18:16:00.411Z,1018.25
2019-04-16T18:17:00.322Z,1018.25
2019-04-16T18:18:01.558Z,1018.30
2019-04-16T18:19:00.461Z,1018.32
2019-04-16T18:19:59.980Z,1018.34
2019-04-16T18:21:00.185Z,1018.35
2019-04-16T18:22:04.352Z,1018.36
2019-04-16T18:22:59.678Z,1018.34
2019-04-16T18:23:59.575Z,1018.36
2019-04-16T18:24:59.582Z,1018.41
2019-04-16T18:25:59.374Z,1018.42
2019-04-16T18:26:59.276Z,1018.40
2019-04-16T18:28:04.850Z,1018.42
2019-04-16T18:29:01.021Z,1018.50
2019-04-16T18:29:58.974Z,1018.49
2019-04-16T18:30:58.880Z,1018.53
2019-04-16T18:31:58.794Z,1018.45
2019-04-16T18:32:58.678Z,1018.52
2019-04-16T18:33:58.620Z,1018.49
2019-04-16T18:34:58.548Z,1018.51
2019-04-16T18:36:01.397Z,1018.51
2019-04-16T18:36:58.612Z,1018.58
2019-04-16T18:37:58.167Z,1018.57
2019-04-16T18:39:03.563Z,1018.54
2019-04-16T18:39:57.965Z,1018.58
2019-04-16T18:41:02.492Z,1018.60
2019-04-16T18:41:57.766Z,1018.57
2019-04-16T18:42:57.661Z,1018.54
2019-04-16T18:43:57.561Z,1018.55
2019-04-16T18:44:57.460Z,1018.59
2019-04-16T18:45:57.356Z,1018.59
2019-04-16T18:46:57.255Z,1018.56
2019-04-16T18:48:04.646Z,1018.62
2019-04-16T18:48:57.265Z,1018.57
2019-04-16T18:49:56.955Z,1018.63
2019-04-16T18:51:00.182Z,1018.64
2019-04-16T18:51:56.752Z,1018.62
2019-04-16T18:52:56.655Z,1018.64
2019-04-16T18:53:56.588Z,1018.65
2019-04-16T18:54:56.525Z,1018.66
2019-04-16T18:55:56.604Z,1018.69
2019-04-16T18:56:56.374Z,1018.72
2019-04-16T18:57:56.150Z,1018.71
2019-04-16T18:58:56.043Z,1018.70
2019-04-16T18:59:55.942Z,1018.70
2019-04-16T19:00:55.842Z,1018.71
2019-04-16T19:01:55.742Z,1018.73
2019-04-16T19:02:55.636Z,1018.72
2019-04-16T19:03:55.541Z,1018.71
2019-04-16T19:04:55.438Z,1018.77
2019-04-16T19:05:55.333Z,1018.78
2019-04-16T19:06:55.237Z,1018.81
2019-04-16T19:07:55.884Z,1018.82
2019-04-16T19:08:55.028Z,1018.81
2019-04-16T19:09:54.932Z,1018.83
2019-04-16T19:10:54.979Z,1018.81
2019-04-16T19:11:54.727Z,1018.85
2019-04-16T19:12:54.630Z,1018.84
2019-04-16T19:13:54.572Z,1018.88
2019-04-16T19:14:54.508Z,1018.86
2019-04-16T19:15:54.320Z,1018.90
2019-04-16T19:16:54.219Z,1018.87
2019-04-16T19:17:54.170Z,1018.91
2019-04-16T19:18:54.015Z,1018.88
2019-04-16T19:19:53.915Z,1018.89
2019-04-16T19:20:53.810Z,1018.93
2019-04-16T19:21:53.714Z,1018.94
2019-04-16T19:22:53.606Z,1019.00
2019-04-16T19:23:53.508Z,1018.97
2019-04-16T19:24:53.406Z,1018.97
2019-04-16T19:25:55.469Z,1019.00
2019-04-16T19:26:53.202Z,1018.97
2019-04-16T19:27:53.101Z,1019.00
2019-04-16T19:28:53.498Z,1019.02
2019-04-16T19:29:52.893Z,1019.01
2019-04-16T19:30:52.795Z,1019.02
2019-04-16T19:31:56.443Z,1019.03
2019-04-16T19:32:52.633Z,1019.01
2019-04-16T19:33:52.619Z,1019.04
2019-04-16T19:35:07.271Z,1019.03
2019-04-16T19:35:52.314Z,1019.07
2019-04-16T19:36:52.362Z,1019.07
2019-04-16T19:37:52.081Z,1019.07
2019-04-16T19:38:51.982Z,1019.10
2019-04-16T19:39:51.883Z,1019.10
2019-04-16T19:40:51.869Z,1019.11
2019-04-16T19:41:53.015Z,1019.10
2019-04-16T19:42:51.577Z,1019.11
2019-04-16T19:43:51.472Z,1019.15
2019-04-16T19:44:51.370Z,1019.15
2019-04-16T19:45:51.269Z,1019.14
2019-04-16T19:46:53.700Z,1019.13
2019-04-16T19:47:51.066Z,1019.20
2019-04-16T19:48:50.960Z,1019.15
2019-04-16T19:49:50.861Z,1019.20